Time;durP1;ratioP1;P1;durP2;ratioP2;P2;SDS_P1;SDS_P2;PMS_P1;PMS_P2;Temp;Humidity;BMP_temperature;BMP_pressure;BME280_temperature;BME280_humidity;BME280_pressure;Samples;Min_cycle;Max_cycle;Signal;HPM_P1;HPM_P2
2023/09/24 00:01:21;;;;;;;17.30;5.68;;;12.60;99.90;;;;;;5071831;28;20039;-67
2023/09/24 00:03:47;;;;;;;14.60;5.57;;;12.60;99.90;;;;;;5072414;28;20031;-67
2023/09/24 00:06:12;;;;;;;14.40;5.07;;;12.70;99.90;;;;;;5072455;28;20055;-67
2023/09/24 00:08:38;;;;;;;11.70;5.25;;;12.70;99.90;;;;;;5072382;28;20502;-67
2023/09/24 00:11:04;;;;;;;17.25;5.55;;;12.80;99.90;;;;;;5072287;28;20028;-67
2023/09/24 00:13:30;;;;;;;16.10;6.10;;;12.80;99.90;;;;;;5072358;28;20127;-67
2023/09/24 00:16:07;;;;;;;15.18;5.65;;;12.80;99.90;;;;;;5072550;28;20024;-67
2023/09/24 00:18:33;;;;;;;11.95;5.40;;;12.90;99.90;;;;;;5071992;28;20044;-67
2023/09/24 00:20:59;;;;;;;12.45;5.63;;;12.90;99.90;;;;;;5071959;28;20414;-67
2023/09/24 00:23:24;;;;;;;13.60;5.13;;;13.00;99.90;;;;;;5072491;28;20024;-67
2023/09/24 00:25:50;;;;;;;18.70;6.65;;;13.00;99.90;;;;;;5072272;28;20112;-67
2023/09/24 00:28:16;;;;;;;14.10;4.82;;;13.10;99.90;;;;;;5072190;28;20047;-67
2023/09/24 00:30:43;;;;;;;15.10;5.70;;;13.10;99.90;;;;;;5072414;28;20035;-67
2023/09/24 00:33:09;;;;;;;12.27;4.68;;;13.10;99.90;;;;;;5072317;28;20514;-67
2023/09/24 00:35:35;;;;;;;16.20;4.80;;;13.10;99.90;;;;;;5072164;28;20040;-67
2023/09/24 00:38:00;;;;;;;9.82;4.63;;;13.20;99.90;;;;;;5072160;28;20123;-67
2023/09/24 00:40:26;;;;;;;11.68;4.25;;;13.20;99.90;;;;;;5072135;28;20021;-67
2023/09/24 00:42:53;;;;;;;14.32;4.72;;;13.20;99.90;;;;;;5072126;28;20028;-67
2023/09/24 00:45:18;;;;;;;7.65;4.38;;;13.30;99.90;;;;;;5072247;28;20108;-67
2023/09/24 00:47:47;;;;;;;15.68;5.50;;;13.30;99.90;;;;;;5072237;28;20124;-67
2023/09/24 00:50:14;;;;;;;14.98;4.78;;;13.40;99.90;;;;;;5071807;28;20092;-68
2023/09/24 00:52:42;;;;;;;16.45;4.78;;;13.40;99.90;;;;;;5072222;28;20400;-67
2023/09/24 00:55:08;;;;;;;13.55;4.32;;;13.40;99.90;;;;;;5072144;28;20033;-67
2023/09/24 00:57:35;;;;;;;11.18;4.25;;;13.40;99.90;;;;;;5071707;28;20052;-67
2023/09/24 01:00:11;;;;;;;12.57;4.10;;;13.50;99.90;;;;;;5071964;28;20419;-67
2023/09/24 01:02:40;;;;;;;9.27;3.90;;;13.50;99.90;;;;;;5072086;28;20040;-67
2023/09/24 01:05:10;;;;;;;10.63;3.58;;;13.50;99.90;;;;;;5072267;28;20031;-67
2023/09/24 01:07:41;;;;;;;11.45;3.92;;;13.50;99.90;;;;;;5071934;28;20440;-67
2023/09/24 01:10:07;;;;;;;11.63;4.03;;;13.50;99.90;;;;;;5071734;28;20098;-67
2023/09/24 01:12:32;;;;;;;11.25;3.70;;;13.50;99.90;;;;;;5071971;28;20025;-67
2023/09/24 01:14:58;;;;;;;14.15;4.43;;;13.40;99.90;;;;;;5071859;28;20104;-67
2023/09/24 01:17:25;;;;;;;9.48;3.67;;;13.40;99.90;;;;;;5071808;28;20047;-66
2023/09/24 01:19:53;;;;;;;12.50;4.18;;;13.30;99.90;;;;;;5071774;28;20036;-67
2023/09/24 01:22:20;;;;;;;11.55;4.05;;;13.20;99.90;;;;;;5071395;28;20032;-66
2023/09/24 01:24:45;;;;;;;10.20;3.60;;;13.10;99.90;;;;;;5071726;28;20074;-66
2023/09/24 01:27:11;;;;;;;9.63;3.97;;;13.10;99.90;;;;;;5072428;28;20334;-67
2023/09/24 01:29:37;;;;;;;8.93;3.67;;;13.00;99.90;;;;;;5075947;28;20037;-67
2023/09/24 01:32:06;;;;;;;11.27;4.40;;;13.00;99.90;;;;;;5075845;28;20040;-67
2023/09/24 01:34:35;;;;;;;11.05;3.78;;;12.90;99.90;;;;;;5075572;28;20029;-66
2023/09/24 01:37:08;;;;;;;10.80;4.72;;;12.80;99.90;;;;;;5075573;28;20119;-66
2023/09/24 01:39:35;;;;;;;12.35;4.85;;;12.80;99.90;;;;;;5075748;28;20507;-66
2023/09/24 01:42:00;;;;;;;11.65;4.18;;;12.70;99.90;;;;;;5075678;28;20040;-67
2023/09/24 01:44:26;;;;;;;11.68;4.22;;;12.70;99.90;;;;;;5075683;28;20025;-67
2023/09/24 01:46:51;;;;;;;9.73;3.70;;;12.70;99.90;;;;;;5075190;28;20031;-67
2023/09/24 01:49:19;;;;;;;13.13;3.60;;;12.60;99.90;;;;;;5075096;28;20039;-67
2023/09/24 01:51:47;;;;;;;13.93;4.82;;;12.60;99.90;;;;;;5075457;28;20123;-67
2023/09/24 01:54:13;;;;;;;14.65;3.65;;;12.60;99.90;;;;;;5074550;28;20021;-67
2023/09/24 01:56:39;;;;;;;11.38;3.78;;;12.50;99.90;;;;;;5074952;28;20028;-66
2023/09/24 01:59:05;;;;;;;16.05;4.38;;;12.50;99.90;;;;;;5074796;28;20025;-67
2023/09/24 02:01:31;;;;;;;14.15;4.68;;;12.50;99.90;;;;;;5074477;28;20499;-66
2023/09/24 02:03:59;;;;;;;14.02;4.53;;;12.40;99.90;;;;;;5074655;28;20024;-66
2023/09/24 02:06:25;;;;;;;17.70;4.43;;;12.40;99.90;;;;;;5074284;28;20017;-67
2023/09/24 02:08:51;;;;;;;13.07;4.20;;;12.40;99.90;;;;;;5074624;28;20043;-67
2023/09/24 02:11:18;;;;;;;12.10;3.80;;;12.30;99.90;;;;;;5074692;28;20036;-67
2023/09/24 02:13:43;;;;;;;12.80;4.43;;;12.30;99.90;;;;;;5074429;28;20031;-66
2023/09/24 02:16:09;;;;;;;13.55;3.85;;;12.30;99.90;;;;;;5074956;28;20029;-67
2023/09/24 02:18:36;;;;;;;10.50;3.90;;;12.30;99.90;;;;;;5074999;28;20074;-67
2023/09/24 02:21:01;;;;;;;13.27;4.35;;;12.20;99.90;;;;;;5075009;28;20028;-66
2023/09/24 02:23:27;;;;;;;14.77;4.85;;;12.20;99.90;;;;;;5074917;28;20046;-67
2023/09/24 02:25:53;;;;;;;9.98;3.80;;;12.20;99.90;;;;;;5074674;28;20029;-67
2023/09/24 02:28:18;;;;;;;13.82;3.72;;;12.10;99.90;;;;;;5074635;28;20043;-67
2023/09/24 02:30:45;;;;;;;12.70;4.30;;;12.10;99.90;;;;;;5074789;28;20078;-67
2023/09/24 02:33:11;;;;;;;10.05;3.67;;;12.10;99.90;;;;;;5074554;28;20468;-67
2023/09/24 02:35:36;;;;;;;14.77;5.13;;;12.10;99.90;;;;;;5074577;28;20028;-66
2023/09/24 02:38:07;;;;;;;14.68;4.07;;;12.10;99.90;;;;;;5074349;28;20082;-66
2023/09/24 02:40:32;;;;;;;9.57;3.95;;;12.10;99.90;;;;;;5074044;28;20514;-66
2023/09/24 02:43:01;;;;;;;17.02;5.68;;;12.00;99.90;;;;;;5074627;28;20029;-67
2023/09/24 02:45:29;;;;;;;12.35;4.00;;;12.00;99.90;;;;;;5074639;28;20059;-67
2023/09/24 02:47:55;;;;;;;19.65;4.70;;;12.00;99.90;;;;;;5073995;28;20499;-67
2023/09/24 02:50:23;;;;;;;13.63;4.10;;;11.90;99.90;;;;;;5074146;28;20052;-67
2023/09/24 02:52:52;;;;;;;12.05;4.15;;;11.90;99.90;;;;;;5074361;28;20060;-67
2023/09/24 02:55:18;;;;;;;11.63;4.07;;;12.00;99.90;;;;;;5074442;28;20056;-67
2023/09/24 02:57:44;;;;;;;15.88;4.90;;;11.90;99.90;;;;;;5074192;28;20074;-67
2023/09/24 03:00:17;;;;;;;16.88;4.60;;;11.90;99.90;;;;;;5074198;28;20140;-66
2023/09/24 03:02:44;;;;;;;13.57;4.13;;;11.90;99.90;;;;;;5074343;28;20504;-66
2023/09/24 03:05:12;;;;;;;15.82;5.28;;;11.80;99.90;;;;;;5074143;28;20131;-66
2023/09/24 03:07:40;;;;;;;16.27;5.20;;;11.80;99.90;;;;;;5074180;28;20044;-67
2023/09/24 03:10:07;;;;;;;13.48;4.47;;;11.80;99.90;;;;;;5074134;28;20358;-67
2023/09/24 03:12:34;;;;;;;19.77;5.40;;;11.80;99.90;;;;;;5074017;28;20487;-67
2023/09/24 03:15:00;;;;;;;11.82;5.07;;;11.80;99.90;;;;;;5073547;28;20032;-67
2023/09/24 03:17:26;;;;;;;11.50;4.90;;;11.80;99.90;;;;;;5073911;28;20564;-67
2023/09/24 03:19:51;;;;;;;7.60;3.75;;;11.80;99.90;;;;;;5073869;28;20128;-66
2023/09/24 03:22:17;;;;;;;14.48;4.68;;;11.80;99.90;;;;;;5073578;28;20085;-67
2023/09/24 03:24:43;;;;;;;14.15;4.57;;;11.80;99.90;;;;;;5073751;28;20025;-66
2023/09/24 03:27:09;;;;;;;13.07;5.00;;;11.80;99.90;;;;;;5073786;28;20427;-67
2023/09/24 03:29:34;;;;;;;13.65;4.53;;;11.80;99.90;;;;;;5073166;28;20025;-66
2023/09/24 03:32:00;;;;;;;14.38;5.00;;;11.80;99.90;;;;;;5073668;28;20082;-67
2023/09/24 03:34:25;;;;;;;9.55;4.00;;;11.70;99.90;;;;;;5073514;28;20452;-66
2023/09/24 03:36:51;;;;;;;14.95;4.53;;;11.80;99.90;;;;;;5073235;28;20126;-68
2023/09/24 03:39:17;;;;;;;12.07;4.03;;;11.70;99.90;;;;;;5073547;28;20024;-66
2023/09/24 03:41:43;;;;;;;14.25;4.50;;;11.80;99.90;;;;;;5073468;28;20147;-66
2023/09/24 03:44:09;;;;;;;11.25;4.55;;;11.80;99.90;;;;;;5073269;28;20028;-67
2023/09/24 03:46:34;;;;;;;16.33;4.32;;;11.80;99.90;;;;;;5073371;28;20483;-67
2023/09/24 03:49:00;;;;;;;13.18;4.68;;;11.70;99.90;;;;;;5073184;28;20155;-67
2023/09/24 03:51:25;;;;;;;12.68;4.65;;;11.70;99.90;;;;;;5072751;28;20071;-67
2023/09/24 03:53:51;;;;;;;12.82;4.80;;;11.70;99.90;;;;;;5073271;28;20459;-67
2023/09/24 03:56:17;;;;;;;12.38;4.20;;;11.70;99.90;;;;;;5073288;28;20354;-67
2023/09/24 03:58:42;;;;;;;15.82;5.10;;;11.70;99.90;;;;;;5072882;28;20078;-67
2023/09/24 04:01:11;;;;;;;10.77;3.78;;;11.70;99.90;;;;;;5072961;28;20078;-67
2023/09/24 04:03:37;;;;;;;12.40;4.47;;;11.70;99.90;;;;;;5073244;28;20035;-67
2023/09/24 04:06:12;;;;;;;14.35;4.30;;;11.70;99.90;;;;;;5073325;28;20021;-66
2023/09/24 04:08:37;;;;;;;15.68;4.57;;;11.70;99.90;;;;;;5072885;28;20116;-66
2023/09/24 04:11:08;;;;;;;12.10;4.38;;;11.70;99.90;;;;;;5073004;28;20519;-66
2023/09/24 04:13:35;;;;;;;10.40;4.30;;;11.70;99.90;;;;;;5073051;28;20042;-66
2023/09/24 04:16:09;;;;;;;9.50;3.63;;;11.70;99.90;;;;;;5072980;28;20043;-66
2023/09/24 04:18:35;;;;;;;10.73;4.18;;;11.70;99.90;;;;;;5072996;28;20035;-66
2023/09/24 04:21:01;;;;;;;9.88;3.88;;;11.70;99.90;;;;;;5072912;28;20032;-66
2023/09/24 04:23:27;;;;;;;12.43;4.50;;;11.70;99.90;;;;;;5072954;28;20033;-66
2023/09/24 04:25:54;;;;;;;12.43;4.45;;;11.70;99.90;;;;;;5072669;28;20130;-67
2023/09/24 04:28:19;;;;;;;16.90;5.22;;;11.70;99.90;;;;;;5072892;28;20048;-67
2023/09/24 04:30:46;;;;;;;12.82;4.68;;;11.70;99.90;;;;;;5072810;28;20372;-67
2023/09/24 04:33:12;;;;;;;11.23;4.47;;;11.70;99.90;;;;;;5072788;28;20107;-67
2023/09/24 04:35:38;;;;;;;14.38;4.65;;;11.80;99.90;;;;;;5072459;28;20046;-67
2023/09/24 04:38:03;;;;;;;18.58;5.40;;;11.80;99.90;;;;;;5072612;28;20055;-67
2023/09/24 04:40:31;;;;;;;10.90;4.63;;;11.90;99.90;;;;;;5072184;28;20040;-67
2023/09/24 04:42:56;;;;;;;13.10;5.10;;;11.90;99.90;;;;;;5072621;28;20098;-67
2023/09/24 04:45:22;;;;;;;16.58;5.13;;;12.00;99.90;;;;;;5072440;28;20067;-67
2023/09/24 04:47:48;;;;;;;12.80;4.20;;;12.00;99.90;;;;;;5072178;28;20028;-67
2023/09/24 04:50:14;;;;;;;12.23;4.70;;;12.10;99.90;;;;;;5072478;28;20394;-67
2023/09/24 04:52:41;;;;;;;11.32;4.75;;;12.10;99.90;;;;;;5072253;28;20511;-67
2023/09/24 04:55:08;;;;;;;12.00;4.80;;;12.10;99.90;;;;;;5072415;28;20121;-67
2023/09/24 04:57:34;;;;;;;13.23;5.20;;;12.10;99.90;;;;;;5067940;28;20757;-67
2023/09/24 04:59:59;;;;;;;13.88;4.57;;;12.20;99.90;;;;;;5072243;28;20036;-68
2023/09/24 05:02:25;;;;;;;14.07;4.50;;;12.20;99.90;;;;;;5071405;28;20032;-66
2023/09/24 05:04:51;;;;;;;12.65;4.28;;;12.20;99.90;;;;;;5072090;28;20074;-66
2023/09/24 05:07:17;;;;;;;13.77;4.68;;;12.10;99.90;;;;;;5071874;28;20088;-65
2023/09/24 05:09:45;;;;;;;15.15;4.80;;;12.10;99.90;;;;;;5072250;28;20483;-66
2023/09/24 05:12:12;;;;;;;12.45;5.30;;;12.10;99.90;;;;;;5072180;28;20067;-66
2023/09/24 05:14:38;;;;;;;17.45;5.43;;;12.10;99.90;;;;;;5071967;28;20048;-66
2023/09/24 05:17:03;;;;;;;14.77;5.13;;;12.00;99.90;;;;;;5072063;28;20072;-67
2023/09/24 05:19:29;;;;;;;14.45;4.93;;;12.10;99.90;;;;;;5068616;28;20372;-67
2023/09/24 05:21:54;;;;;;;13.27;4.93;;;12.00;99.90;;;;;;5070477;28;20056;-67
2023/09/24 05:24:20;;;;;;;16.05;5.72;;;12.00;99.90;;;;;;5072041;28;20090;-67
2023/09/24 05:26:46;;;;;;;12.93;5.35;;;12.00;99.90;;;;;;5071888;28;20029;-67
2023/09/24 05:29:11;;;;;;;13.38;5.85;;;12.00;99.90;;;;;;5071800;28;20048;-66
2023/09/24 05:31:37;;;;;;;19.05;5.57;;;12.00;99.90;;;;;;5071923;28;20020;-66
2023/09/24 05:34:04;;;;;;;14.27;6.18;;;12.00;99.90;;;;;;5071216;28;20032;-66
2023/09/24 05:36:30;;;;;;;15.32;5.60;;;11.90;99.90;;;;;;5071251;28;20568;-66
2023/09/24 05:38:56;;;;;;;16.00;5.95;;;11.90;99.90;;;;;;5072037;28;20107;-66
2023/09/24 05:41:22;;;;;;;13.30;5.10;;;11.90;99.90;;;;;;5071570;28;20028;-66
2023/09/24 05:43:48;;;;;;;12.52;5.80;;;11.90;99.90;;;;;;5071551;28;20154;-66
2023/09/24 05:46:14;;;;;;;15.57;5.68;;;11.90;99.90;;;;;;5071446;28;20032;-66
2023/09/24 05:48:40;;;;;;;15.75;5.38;;;11.90;99.90;;;;;;5071728;28;20459;-66
2023/09/24 05:51:07;;;;;;;12.82;4.93;;;11.90;99.90;;;;;;5071100;28;20052;-66
2023/09/24 05:53:33;;;;;;;13.70;5.70;;;12.00;99.90;;;;;;5070893;28;20028;-66
2023/09/24 05:55:59;;;;;;;17.77;5.72;;;12.00;99.90;;;;;;5071216;28;20027;-67
2023/09/24 05:58:26;;;;;;;14.18;5.53;;;12.00;99.90;;;;;;5070544;28;20029;-67
2023/09/24 06:00:54;;;;;;;16.05;6.35;;;12.00;99.90;;;;;;5071064;28;20116;-67
2023/09/24 06:03:20;;;;;;;13.35;5.85;;;12.10;99.90;;;;;;5071691;28;20694;-67
2023/09/24 06:05:46;;;;;;;13.85;6.07;;;12.10;99.90;;;;;;5070875;28;20024;-67
2023/09/24 06:08:11;;;;;;;16.30;5.78;;;12.20;99.90;;;;;;5071547;28;20056;-67
2023/09/24 06:10:45;;;;;;;15.70;5.78;;;12.20;99.90;;;;;;5071539;28;20499;-67
2023/09/24 06:13:13;;;;;;;13.23;5.85;;;12.20;99.90;;;;;;5072488;28;20101;-67
2023/09/24 06:15:40;;;;;;;13.73;5.90;;;12.20;99.90;;;;;;5075366;28;20029;-67
2023/09/24 06:18:05;;;;;;;17.60;7.25;;;12.20;99.90;;;;;;5075390;28;20037;-67
2023/09/24 06:20:31;;;;;;;19.38;6.38;;;12.30;99.90;;;;;;5075101;28;20032;-67
2023/09/24 06:22:57;;;;;;;15.25;6.18;;;12.30;99.90;;;;;;5075218;28;20032;-67
2023/09/24 06:25:24;;;;;;;11.60;5.85;;;12.20;99.90;;;;;;5074680;28;20044;-68
2023/09/24 06:27:49;;;;;;;14.20;5.97;;;12.20;99.90;;;;;;5074893;28;20059;-67
2023/09/24 06:30:15;;;;;;;13.60;6.10;;;12.20;99.90;;;;;;5074754;28;20073;-67
2023/09/24 06:32:40;;;;;;;15.30;6.07;;;12.20;99.90;;;;;;5074976;28;20032;-67
2023/09/24 06:35:06;;;;;;;16.42;6.15;;;12.20;99.90;;;;;;5074942;28;20116;-67
2023/09/24 06:37:32;;;;;;;19.98;6.55;;;12.20;99.90;;;;;;5074923;28;20056;-67
2023/09/24 06:39:58;;;;;;;14.23;6.13;;;12.20;99.90;;;;;;5074804;28;20381;-67
2023/09/24 06:42:23;;;;;;;16.77;6.32;;;12.20;99.90;;;;;;5075015;28;20025;-67
2023/09/24 06:44:50;;;;;;;16.13;6.65;;;12.20;99.90;;;;;;5074964;28;20124;-67
2023/09/24 06:47:15;;;;;;;15.25;6.90;;;12.30;99.90;;;;;;5074593;28;20043;-67
2023/09/24 06:49:41;;;;;;;18.00;6.80;;;12.30;99.90;;;;;;5074473;28;20428;-67
2023/09/24 06:52:07;;;;;;;15.60;6.40;;;12.30;99.90;;;;;;5074818;28;20079;-68
2023/09/24 06:54:33;;;;;;;12.05;6.20;;;12.30;99.90;;;;;;5074583;28;20033;-67
2023/09/24 06:56:59;;;;;;;12.95;6.30;;;12.40;99.90;;;;;;5074423;28;20098;-67
2023/09/24 06:59:25;;;;;;;13.00;5.97;;;12.40;99.90;;;;;;5074468;28;20036;-67
2023/09/24 07:01:53;;;;;;;17.90;6.53;;;12.50;99.90;;;;;;5074413;28;20040;-67
2023/09/24 07:04:18;;;;;;;18.70;7.35;;;12.60;99.90;;;;;;5074167;28;20032;-67
2023/09/24 07:06:44;;;;;;;16.10;6.32;;;12.70;99.90;;;;;;5074137;28;20325;-67
2023/09/24 07:09:09;;;;;;;16.65;7.57;;;12.70;99.90;;;;;;5074058;28;20033;-67
2023/09/24 07:11:37;;;;;;;16.77;7.25;;;12.70;99.90;;;;;;5074361;28;20461;-67
2023/09/24 07:14:06;;;;;;;15.75;7.30;;;12.80;99.90;;;;;;5074052;28;20151;-67
2023/09/24 07:16:33;;;;;;;15.10;6.30;;;12.90;99.90;;;;;;5074145;28;20155;-67
2023/09/24 07:18:58;;;;;;;17.77;7.00;;;12.90;99.90;;;;;;5074199;28;20032;-67
2023/09/24 07:21:26;;;;;;;15.07;6.40;;;13.00;99.90;;;;;;5073812;28;20407;-67
2023/09/24 07:23:56;;;;;;;14.90;6.32;;;13.00;99.90;;;;;;5073903;28;20025;-67
2023/09/24 07:26:25;;;;;;;18.58;8.82;;;13.10;99.90;;;;;;5073175;28;20036;-67
2023/09/24 07:28:52;;;;;;;18.17;6.18;;;13.20;99.90;;;;;;5073681;28;20051;-67
2023/09/24 07:31:25;;;;;;;14.15;5.80;;;13.30;99.90;;;;;;5073488;28;20024;-67
2023/09/24 07:33:54;;;;;;;14.52;5.50;;;13.40;99.90;;;;;;5073771;28;20035;-67
2023/09/24 07:36:20;;;;;;;16.90;5.80;;;13.60;99.90;;;;;;5074050;28;20250;-67
2023/09/24 07:38:46;;;;;;;14.38;6.75;;;13.70;99.90;;;;;;5073934;28;20031;-67
2023/09/24 07:41:12;;;;;;;15.52;5.45;;;13.90;99.90;;;;;;5073778;28;20032;-67
2023/09/24 07:43:40;;;;;;;12.52;5.22;;;14.20;99.90;;;;;;5073419;28;20432;-67
2023/09/24 07:46:07;;;;;;;13.73;4.50;;;14.50;99.90;;;;;;5073775;28;20028;-67
2023/09/24 07:48:32;;;;;;;13.70;4.78;;;14.90;99.90;;;;;;5073373;28;20123;-67
2023/09/24 07:50:59;;;;;;;15.27;5.45;;;15.40;99.90;;;;;;5073226;28;20439;-67
2023/09/24 07:53:25;;;;;;;14.20;5.00;;;16.10;99.90;;;;;;5073452;28;20101;-67
2023/09/24 07:55:57;;;;;;;15.25;5.03;;;16.80;99.90;;;;;;5073438;28;20055;-67
2023/09/24 07:58:24;;;;;;;16.00;6.07;;;17.30;99.90;;;;;;5073138;28;20473;-67
2023/09/24 08:00:52;;;;;;;11.85;3.40;;;18.00;99.90;;;;;;5073185;28;20433;-67
2023/09/24 08:03:19;;;;;;;11.57;3.50;;;18.80;99.90;;;;;;5072884;28;20459;-67
2023/09/24 08:05:44;;;;;;;9.95;3.65;;;19.20;99.90;;;;;;5073309;28;20028;-67
2023/09/24 08:08:10;;;;;;;9.20;3.50;;;19.40;99.90;;;;;;5073095;28;20632;-67
2023/09/24 08:10:36;;;;;;;10.05;3.60;;;19.60;99.90;;;;;;5073451;28;20036;-67
2023/09/24 08:13:04;;;;;;;10.30;3.75;;;19.80;99.90;;;;;;5072661;28;20461;-67
2023/09/24 08:15:30;;;;;;;8.43;3.20;;;20.30;99.90;;;;;;5072906;28;20114;-68
2023/09/24 08:17:56;;;;;;;7.28;2.95;;;20.70;99.90;;;;;;5072659;28;20029;-67
2023/09/24 08:20:22;;;;;;;8.90;2.88;;;21.10;99.90;;;;;;5072646;28;20029;-67
2023/09/24 08:22:48;;;;;;;10.30;2.50;;;21.50;99.90;;;;;;5072684;28;20036;-67
2023/09/24 08:25:14;;;;;;;10.85;3.10;;;22.00;99.90;;;;;;5072433;28;20035;-68
2023/09/24 08:27:40;;;;;;;8.85;3.05;;;22.40;99.90;;;;;;5072540;28;20044;-68
2023/09/24 08:30:06;;;;;;;7.80;2.63;;;22.60;99.70;;;;;;5071472;28;20078;-68
2023/09/24 08:32:31;;;;;;;5.55;2.13;;;22.90;99.40;;;;;;5072599;28;20020;-67
2023/09/24 08:34:57;;;;;;;9.98;3.28;;;23.30;98.20;;;;;;5072553;28;20028;-68
2023/09/24 08:37:23;;;;;;;10.70;3.15;;;23.20;98.60;;;;;;5072324;28;20035;-67
2023/09/24 08:39:48;;;;;;;6.65;2.58;;;23.30;98.70;;;;;;5072265;28;20033;-67
2023/09/24 08:42:17;;;;;;;6.70;2.42;;;23.60;98.40;;;;;;5072524;28;20427;-67
2023/09/24 08:44:43;;;;;;;9.07;3.80;;;23.70;97.70;;;;;;5072412;28;20097;-67
2023/09/24 08:47:09;;;;;;;10.25;2.65;;;23.60;97.80;;;;;;5072234;28;20039;-67
2023/09/24 08:49:35;;;;;;;7.68;3.08;;;23.70;97.70;;;;;;5072159;28;20081;-67
2023/09/24 08:52:03;;;;;;;9.65;2.80;;;23.90;97.70;;;;;;5072236;28;20025;-67
2023/09/24 08:54:30;;;;;;;4.35;2.22;;;24.10;97.10;;;;;;5071864;28;20111;-67
2023/09/24 08:56:56;;;;;;;5.43;2.33;;;24.40;96.70;;;;;;5072361;28;20101;-67
2023/09/24 08:59:22;;;;;;;7.80;2.10;;;24.00;96.60;;;;;;5071468;28;20044;-67
2023/09/24 09:01:54;;;;;;;8.90;2.30;;;23.70;96.90;;;;;;5072189;28;20108;-67
2023/09/24 09:04:20;;;;;;;6.07;2.40;;;23.70;97.00;;;;;;5072209;28;20036;-67
2023/09/24 09:06:45;;;;;;;10.10;2.70;;;23.90;96.30;;;;;;5072372;28;20024;-67
2023/09/24 09:09:22;;;;;;;6.13;2.28;;;23.60;96.70;;;;;;5071617;28;20040;-67
2023/09/24 09:11:48;;;;;;;5.53;2.03;;;23.60;96.90;;;;;;5072077;28;20473;-67
2023/09/24 09:14:14;;;;;;;8.60;2.63;;;23.80;96.40;;;;;;5072018;28;20043;-67
2023/09/24 09:16:57;;;;;;;7.90;2.33;;;23.90;96.50;;;;;;5072072;28;20107;-67
2023/09/24 09:19:24;;;;;;;8.52;2.05;;;24.10;96.00;;;;;;5072041;28;20032;-67
2023/09/24 09:21:50;;;;;;;6.57;2.55;;;24.10;95.90;;;;;;5071975;28;20621;-67
2023/09/24 09:24:25;;;;;;;7.75;2.30;;;24.20;95.70;;;;;;5071940;28;20051;-67
2023/09/24 09:26:55;;;;;;;5.65;2.33;;;24.00;96.20;;;;;;5071975;28;20043;-67
2023/09/24 09:29:26;;;;;;;6.45;2.22;;;24.30;95.40;;;;;;5072105;28;20126;-67
2023/09/24 09:31:52;;;;;;;12.60;3.00;;;24.10;95.40;;;;;;5072139;28;20028;-67
2023/09/24 09:34:18;;;;;;;5.30;1.73;;;24.10;96.70;;;;;;5071936;28;20052;-67
2023/09/24 09:36:43;;;;;;;8.88;2.67;;;24.30;95.20;;;;;;5071195;28;20025;-66
2023/09/24 09:39:09;;;;;;;9.00;2.45;;;24.10;96.10;;;;;;5071741;28;20455;-66
2023/09/24 09:41:35;;;;;;;5.03;2.30;;;24.30;95.80;;;;;;5071481;28;20036;-67
2023/09/24 09:44:05;;;;;;;6.32;2.00;;;24.70;95.40;;;;;;5071909;28;20082;-67
2023/09/24 09:46:33;;;;;;;6.45;2.65;;;25.10;94.40;;;;;;5071630;28;20485;-67
2023/09/24 09:49:07;;;;;;;8.63;2.17;;;24.90;94.80;;;;;;5073592;28;20037;-67
2023/09/24 09:51:48;;;;;;;10.65;4.63;;;25.10;94.50;;;;;;5075896;28;20040;-67
2023/09/24 09:54:15;;;;;;;6.15;2.45;;;24.80;94.90;;;;;;5075751;28;20036;-67
2023/09/24 09:56:41;;;;;;;6.10;2.25;;;25.00;94.40;;;;;;5075826;28;20452;-67
2023/09/24 09:59:07;;;;;;;3.50;1.70;;;25.10;94.20;;;;;;5075716;28;20448;-67
2023/09/24 10:01:34;;;;;;;6.15;2.20;;;24.80;94.40;;;;;;5075318;28;20052;-67
2023/09/24 10:04:02;;;;;;;8.88;2.55;;;24.80;94.50;;;;;;5075589;28;20456;-67
2023/09/24 10:06:29;;;;;;;8.07;2.38;;;24.70;94.90;;;;;;5075294;28;20032;-67
2023/09/24 10:08:55;;;;;;;9.20;2.17;;;24.90;95.50;;;;;;5075187;28;20129;-68
2023/09/24 10:11:44;;;;;;;5.00;2.08;;;25.30;95.00;;;;;;5075250;28;20113;-67
2023/09/24 10:14:09;;;;;;;6.32;2.05;;;26.00;93.90;;;;;;5066571;28;20033;-67
2023/09/24 10:16:39;;;;;;;8.30;2.63;;;25.80;93.80;;;;;;5075165;28;20028;-67
2023/09/24 10:19:13;;;;;;;8.25;2.85;;;25.60;94.00;;;;;;5075323;28;20037;-67
2023/09/24 10:21:43;;;;;;;6.82;2.08;;;25.50;94.00;;;;;;5075272;28;20028;-67
2023/09/24 10:24:12;;;;;;;6.90;1.98;;;25.40;93.70;;;;;;5074822;28;20024;-67
2023/09/24 10:26:50;;;;;;;7.80;2.70;;;24.90;94.00;;;;;;5074980;28;20027;-67
2023/09/24 10:29:18;;;;;;;7.55;2.00;;;24.50;94.50;;;;;;5074869;28;20044;-66
2023/09/24 10:32:08;;;;;;;6.47;2.20;;;23.90;94.80;;;;;;5074694;28;20029;-66
2023/09/24 10:34:55;;;;;;;6.20;1.48;;;23.50;95.20;;;;;;5074348;28;20039;-66
2023/09/24 10:37:38;;;;;;;9.05;1.95;;;23.10;95.80;;;;;;5074841;28;20035;-66
2023/09/24 10:40:05;;;;;;;5.28;2.28;;;22.50;96.00;;;;;;5074688;28;20031;-67
2023/09/24 10:42:32;;;;;;;7.60;2.03;;;22.20;97.50;;;;;;5074560;28;20040;-67
2023/09/24 10:45:18;;;;;;;6.90;1.98;;;22.00;97.70;;;;;;5074694;28;20429;-67
2023/09/24 10:47:44;;;;;;;4.00;2.10;;;21.90;97.50;;;;;;5064026;28;20204;-66
2023/09/24 10:50:14;;;;;;;6.25;2.05;;;22.00;97.70;;;;;;5085213;28;20434;-67
2023/09/24 10:53:02;;;;;;;9.55;2.78;;;22.30;97.10;;;;;;5074363;28;20500;-67
2023/09/24 10:55:28;;;;;;;3.83;1.80;;;22.60;97.30;;;;;;5074069;28;20029;-67
2023/09/24 10:57:55;;;;;;;7.03;2.15;;;22.80;96.40;;;;;;5074253;28;20353;-67
2023/09/24 11:00:22;;;;;;;7.93;1.98;;;23.20;96.90;;;;;;5073175;28;20035;-67
2023/09/24 11:03:08;;;;;;;6.15;1.88;;;23.90;95.70;;;;;;5073016;28;20376;-67
2023/09/24 11:05:39;;;;;;;8.27;2.63;;;24.40;95.40;;;;;;5074370;28;20052;-67
2023/09/24 11:08:05;;;;;;;5.72;1.85;;;25.10;95.50;;;;;;5073779;28;20492;-67
2023/09/24 11:10:31;;;;;;;5.22;2.00;;;25.60;94.30;;;;;;5074383;28;20035;-67
2023/09/24 11:13:02;;;;;;;5.93;2.50;;;25.90;93.70;;;;;;5074028;28;20041;-67
2023/09/24 11:15:45;;;;;;;6.73;1.80;;;26.20;94.50;;;;;;5074115;28;20040;-67
2023/09/24 11:18:13;;;;;;;4.30;1.45;;;26.40;92.50;;;;;;5074102;28;20028;-67
2023/09/24 11:20:47;;;;;;;5.13;1.58;;;26.10;92.60;;;;;;5073881;28;20051;-67
2023/09/24 11:23:13;;;;;;;3.47;1.50;;;25.60;92.20;;;;;;5073679;28;20028;-67
2023/09/24 11:25:40;;;;;;;6.25;2.20;;;25.10;92.80;;;;;;5073678;28;20055;-67
2023/09/24 11:28:06;;;;;;;8.05;2.10;;;25.10;94.70;;;;;;5073652;28;20079;-67
2023/09/24 11:30:43;;;;;;;8.40;1.85;;;25.70;93.70;;;;;;5073428;28;20489;-67
2023/09/24 11:33:23;;;;;;;4.90;1.80;;;25.70;92.60;;;;;;5073681;28;20032;-66
2023/09/24 11:35:50;;;;;;;3.97;1.50;;;25.50;93.50;;;;;;5073635;28;20024;-66
2023/09/24 11:38:32;;;;;;;5.82;1.88;;;25.90;92.20;;;;;;5073394;28;20028;-66
2023/09/24 11:41:12;;;;;;;4.30;1.88;;;25.70;91.90;;;;;;5073338;28;20374;-66
2023/09/24 11:43:38;;;;;;;2.65;1.30;;;25.40;92.50;;;;;;5073668;28;20040;-66
2023/09/24 11:46:21;;;;;;;5.97;1.70;;;25.40;91.90;;;;;;5073825;28;20032;-66
2023/09/24 11:48:47;;;;;;;6.20;2.05;;;25.40;92.20;;;;;;5073436;28;20059;-66
2023/09/24 11:51:12;;;;;;;5.80;1.98;;;25.20;92.70;;;;;;5073366;28;20488;-66
2023/09/24 11:53:38;;;;;;;7.80;2.15;;;25.30;92.90;;;;;;5072756;28;20033;-66
2023/09/24 11:56:04;;;;;;;4.45;1.70;;;25.10;92.90;;;;;;5072578;28;20055;-66
2023/09/24 11:58:32;;;;;;;3.97;1.67;;;24.80;92.70;;;;;;5073399;28;20028;-66
2023/09/24 12:00:58;;;;;;;5.45;2.10;;;24.80;93.10;;;;;;5073059;28;20029;-66
2023/09/24 12:03:24;;;;;;;4.32;1.88;;;24.80;93.30;;;;;;5071540;28;20032;-66
2023/09/24 12:05:51;;;;;;;4.75;1.30;;;25.10;92.70;;;;;;5072819;28;20025;-66
2023/09/24 12:08:17;;;;;;;3.15;1.42;;;25.00;91.90;;;;;;5071907;28;20047;-66
2023/09/24 12:10:46;;;;;;;4.00;1.42;;;24.70;92.40;;;;;;5071843;28;20025;-65
2023/09/24 12:13:13;;;;;;;5.18;1.73;;;24.60;92.50;;;;;;5073086;28;20064;-66
2023/09/24 12:15:38;;;;;;;5.60;1.85;;;24.60;91.70;;;;;;5054314;28;20029;-66
2023/09/24 12:18:05;;;;;;;5.88;2.20;;;24.50;91.70;;;;;;5053068;28;20037;-66
2023/09/24 12:20:33;;;;;;;5.22;1.85;;;24.70;92.50;;;;;;5053012;28;20061;-67
2023/09/24 12:23:01;;;;;;;2.58;1.38;;;24.80;92.10;;;;;;5058594;28;20028;-66
2023/09/24 12:25:28;;;;;;;6.97;2.08;;;24.70;91.30;;;;;;5072388;28;20033;-68
2023/09/24 12:27:53;;;;;;;5.57;1.98;;;24.50;91.70;;;;;;5072225;28;20412;-66
2023/09/24 12:30:19;;;;;;;4.38;1.70;;;24.50;92.20;;;;;;5072527;28;20020;-67
2023/09/24 12:32:44;;;;;;;6.25;1.60;;;24.50;93.20;;;;;;5072632;28;20455;-67
2023/09/24 12:35:13;;;;;;;2.22;1.38;;;24.70;91.80;;;;;;5072301;28;20103;-67
2023/09/24 12:37:40;;;;;;;5.72;1.77;;;24.70;91.90;;;;;;5072320;28;20070;-67
2023/09/24 12:40:09;;;;;;;3.90;1.45;;;24.50;91.40;;;;;;5072513;28;20024;-67
2023/09/24 12:42:35;;;;;;;5.13;1.80;;;24.40;92.20;;;;;;5071878;28;20391;-66